sensor_id;sensor_type;location;lat;lon;timestamp;temperature;humidity
6174;DHT22;3120;48.796;9.796;2023-06-14T00:02:11;13.70;66.30
6174;DHT22;3120;48.796;9.796;2023-06-14T00:04:36;13.60;65.90
6174;DHT22;3120;48.796;9.796;2023-06-14T00:07:04;13.60;66.20
6174;DHT22;3120;48.796;9.796;2023-06-14T00:09:30;13.50;67.10
6174;DHT22;3120;48.796;9.796;2023-06-14T00:11:55;13.50;66.10
6174;DHT22;3120;48.796;9.796;2023-06-14T00:14:20;13.40;66.10
6174;DHT22;3120;48.796;9.796;2023-06-14T00:16:46;13.40;66.40
6174;DHT22;3120;48.796;9.796;2023-06-14T00:19:13;13.40;66.20
6174;DHT22;3120;48.796;9.796;2023-06-14T00:21:38;13.30;67.10
6174;DHT22;3120;48.796;9.796;2023-06-14T00:24:04;13.30;66.50
6174;DHT22;3120;48.796;9.796;2023-06-14T00:26:29;13.30;66.60
6174;DHT22;3120;48.796;9.796;2023-06-14T00:28:55;13.30;66.60
6174;DHT22;3120;48.796;9.796;2023-06-14T00:31:22;13.30;68.10
6174;DHT22;3120;48.796;9.796;2023-06-14T00:33:47;13.10;67.80
6174;DHT22;3120;48.796;9.796;2023-06-14T00:36:13;13.00;68.10
6174;DHT22;3120;48.796;9.796;2023-06-14T00:38:38;13.10;67.70
6174;DHT22;3120;48.796;9.796;2023-06-14T00:41:04;13.00;68.10
6174;DHT22;3120;48.796;9.796;2023-06-14T00:43:30;13.00;68.10
6174;DHT22;3120;48.796;9.796;2023-06-14T00:45:55;12.90;68.10
6174;DHT22;3120;48.796;9.796;2023-06-14T00:48:21;12.80;68.30
6174;DHT22;3120;48.796;9.796;2023-06-14T00:50:47;12.90;68.00
6174;DHT22;3120;48.796;9.796;2023-06-14T00:53:14;12.80;68.60
6174;DHT22;3120;48.796;9.796;2023-06-14T00:55:40;12.90;68.60
6174;DHT22;3120;48.796;9.796;2023-06-14T00:58:06;12.70;68.60
6174;DHT22;3120;48.796;9.796;2023-06-14T01:00:31;12.60;69.40
6174;DHT22;3120;48.796;9.796;2023-06-14T01:02:57;12.60;70.30
6174;DHT22;3120;48.796;9.796;2023-06-14T01:05:22;12.60;70.30
6174;DHT22;3120;48.796;9.796;2023-06-14T01:15:44;12.30;70.20
6174;DHT22;3120;48.796;9.796;2023-06-14T01:18:09;12.30;70.40
6174;DHT22;3120;48.796;9.796;2023-06-14T01:20:43;12.20;70.70
6174;DHT22;3120;48.796;9.796;2023-06-14T01:23:13;12.20;71.00
6174;DHT22;3120;48.796;9.796;2023-06-14T01:25:38;12.20;70.80
6174;DHT22;3120;48.796;9.796;2023-06-14T01:28:05;12.20;71.20
6174;DHT22;3120;48.796;9.796;2023-06-14T01:30:36;12.20;70.80
6174;DHT22;3120;48.796;9.796;2023-06-14T01:33:02;12.10;71.10
6174;DHT22;3120;48.796;9.796;2023-06-14T01:35:29;12.00;71.30
6174;DHT22;3120;48.796;9.796;2023-06-14T01:37:54;12.00;71.90
6174;DHT22;3120;48.796;9.796;2023-06-14T01:40:20;12.00;71.30
6174;DHT22;3120;48.796;9.796;2023-06-14T01:42:46;11.90;71.50
6174;DHT22;3120;48.796;9.796;2023-06-14T01:45:12;11.90;71.80
6174;DHT22;3120;48.796;9.796;2023-06-14T01:47:39;11.80;72.20
6174;DHT22;3120;48.796;9.796;2023-06-14T01:50:05;11.80;72.60
6174;DHT22;3120;48.796;9.796;2023-06-14T01:52:30;11.70;72.60
6174;DHT22;3120;48.796;9.796;2023-06-14T01:54:56;11.80;72.90
6174;DHT22;3120;48.796;9.796;2023-06-14T01:57:23;11.60;72.70
6174;DHT22;3120;48.796;9.796;2023-06-14T01:59:50;11.50;73.10
6174;DHT22;3120;48.796;9.796;2023-06-14T02:02:16;11.60;73.80
6174;DHT22;3120;48.796;9.796;2023-06-14T02:04:41;11.50;73.40
6174;DHT22;3120;48.796;9.796;2023-06-14T02:07:07;11.50;73.20
6174;DHT22;3120;48.796;9.796;2023-06-14T02:09:35;11.50;73.50
6174;DHT22;3120;48.796;9.796;2023-06-14T02:12:01;11.50;73.30
6174;DHT22;3120;48.796;9.796;2023-06-14T02:14:26;11.50;73.30
6174;DHT22;3120;48.796;9.796;2023-06-14T02:16:52;11.50;73.60
6174;DHT22;3120;48.796;9.796;2023-06-14T02:19:18;11.40;73.90
6174;DHT22;3120;48.796;9.796;2023-06-14T02:21:44;11.40;74.10
6174;DHT22;3120;48.796;9.796;2023-06-14T02:24:10;11.30;74.10
6174;DHT22;3120;48.796;9.796;2023-06-14T02:26:36;11.30;74.00
6174;DHT22;3120;48.796;9.796;2023-06-14T02:29:06;11.30;74.20
6174;DHT22;3120;48.796;9.796;2023-06-14T02:31:34;11.20;75.20
6174;DHT22;3120;48.796;9.796;2023-06-14T02:33:59;11.20;74.80
6174;DHT22;3120;48.796;9.796;2023-06-14T02:36:25;11.30;74.60
6174;DHT22;3120;48.796;9.796;2023-06-14T02:38:51;11.10;75.00
6174;DHT22;3120;48.796;9.796;2023-06-14T02:41:18;11.20;74.90
6174;DHT22;3120;48.796;9.796;2023-06-14T02:43:44;11.10;74.90
6174;DHT22;3120;48.796;9.796;2023-06-14T02:46:09;11.10;75.20
6174;DHT22;3120;48.796;9.796;2023-06-14T02:48:35;11.00;75.40
6174;DHT22;3120;48.796;9.796;2023-06-14T02:51:00;11.00;75.30
6174;DHT22;3120;48.796;9.796;2023-06-14T02:53:25;10.90;75.50
6174;DHT22;3120;48.796;9.796;2023-06-14T02:55:51;10.90;76.10
6174;DHT22;3120;48.796;9.796;2023-06-14T02:58:17;10.90;75.80
6174;DHT22;3120;48.796;9.796;2023-06-14T03:00:43;10.80;76.50
6174;DHT22;3120;48.796;9.796;2023-06-14T03:03:09;10.80;76.80
6174;DHT22;3120;48.796;9.796;2023-06-14T03:05:41;10.80;76.60
6174;DHT22;3120;48.796;9.796;2023-06-14T03:08:11;10.90;76.70
6174;DHT22;3120;48.796;9.796;2023-06-14T03:10:42;10.70;76.80
6174;DHT22;3120;48.796;9.796;2023-06-14T03:13:08;10.70;76.70
6174;DHT22;3120;48.796;9.796;2023-06-14T03:15:34;10.70;77.40
6174;DHT22;3120;48.796;9.796;2023-06-14T03:18:00;10.70;76.80
6174;DHT22;3120;48.796;9.796;2023-06-14T03:20:26;10.70;77.80
6174;DHT22;3120;48.796;9.796;2023-06-14T03:25:25;10.80;76.30
6174;DHT22;3120;48.796;9.796;2023-06-14T03:27:51;10.80;76.70
6174;DHT22;3120;48.796;9.796;2023-06-14T03:30:16;10.60;76.90
6174;DHT22;3120;48.796;9.796;2023-06-14T03:32:42;10.60;77.20
6174;DHT22;3120;48.796;9.796;2023-06-14T03:35:07;10.50;77.00
6174;DHT22;3120;48.796;9.796;2023-06-14T03:37:34;10.50;77.70
6174;DHT22;3120;48.796;9.796;2023-06-14T03:39:59;10.60;77.60
6174;DHT22;3120;48.796;9.796;2023-06-14T03:42:26;10.50;77.00
6174;DHT22;3120;48.796;9.796;2023-06-14T03:44:51;10.60;77.20
6174;DHT22;3120;48.796;9.796;2023-06-14T03:47:17;10.50;77.30
6174;DHT22;3120;48.796;9.796;2023-06-14T03:49:42;10.50;77.30
6174;DHT22;3120;48.796;9.796;2023-06-14T03:52:08;10.40;77.50
6174;DHT22;3120;48.796;9.796;2023-06-14T03:54:33;10.40;78.00
6174;DHT22;3120;48.796;9.796;2023-06-14T03:56:59;10.50;78.30
6174;DHT22;3120;48.796;9.796;2023-06-14T03:59:25;10.50;77.80
6174;DHT22;3120;48.796;9.796;2023-06-14T04:01:51;10.50;78.00
6174;DHT22;3120;48.796;9.796;2023-06-14T04:04:16;10.60;77.70
6174;DHT22;3120;48.796;9.796;2023-06-14T04:06:42;10.60;77.30
6174;DHT22;3120;48.796;9.796;2023-06-14T04:09:08;10.60;77.20
6174;DHT22;3120;48.796;9.796;2023-06-14T04:11:33;10.60;77.50
6174;DHT22;3120;48.796;9.796;2023-06-14T04:13:59;10.60;77.70
6174;DHT22;3120;48.796;9.796;2023-06-14T04:16:24;10.60;77.50
6174;DHT22;3120;48.796;9.796;2023-06-14T04:18:50;10.70;77.20
6174;DHT22;3120;48.796;9.796;2023-06-14T04:21:17;10.70;77.20
6174;DHT22;3120;48.796;9.796;2023-06-14T04:23:43;10.70;76.50
6174;DHT22;3120;48.796;9.796;2023-06-14T04:26:09;10.70;76.60
6174;DHT22;3120;48.796;9.796;2023-06-14T04:28:36;11.20;77.10
6174;DHT22;3120;48.796;9.796;2023-06-14T04:31:09;10.80;76.20
6174;DHT22;3120;48.796;9.796;2023-06-14T04:33:35;10.90;77.30
6174;DHT22;3120;48.796;9.796;2023-06-14T04:36:09;10.90;76.70
6174;DHT22;3120;48.796;9.796;2023-06-14T04:38:35;11.00;76.30
6174;DHT22;3120;48.796;9.796;2023-06-14T04:41:00;11.00;76.00
6174;DHT22;3120;48.796;9.796;2023-06-14T04:43:27;11.10;76.20
6174;DHT22;3120;48.796;9.796;2023-06-14T04:45:53;11.20;76.60
6174;DHT22;3120;48.796;9.796;2023-06-14T04:48:20;11.30;75.40
6174;DHT22;3120;48.796;9.796;2023-06-14T04:50:46;11.30;75.00
6174;DHT22;3120;48.796;9.796;2023-06-14T04:53:11;11.50;76.80
6174;DHT22;3120;48.796;9.796;2023-06-14T04:55:37;11.60;74.80
6174;DHT22;3120;48.796;9.796;2023-06-14T04:58:02;11.70;73.80
6174;DHT22;3120;48.796;9.796;2023-06-14T05:00:28;11.70;73.50
6174;DHT22;3120;48.796;9.796;2023-06-14T05:02:55;11.80;74.70
6174;DHT22;3120;48.796;9.796;2023-06-14T05:05:22;11.90;75.40
6174;DHT22;3120;48.796;9.796;2023-06-14T05:07:48;12.00;73.30
6174;DHT22;3120;48.796;9.796;2023-06-14T05:10:13;12.10;73.00
6174;DHT22;3120;48.796;9.796;2023-06-14T05:12:39;12.30;72.40
6174;DHT22;3120;48.796;9.796;2023-06-14T05:15:05;12.30;71.70
6174;DHT22;3120;48.796;9.796;2023-06-14T05:17:30;12.40;70.30
6174;DHT22;3120;48.796;9.796;2023-06-14T05:19:56;12.60;71.20
6174;DHT22;3120;48.796;9.796;2023-06-14T05:22:21;12.70;71.30
6174;DHT22;3120;48.796;9.796;2023-06-14T05:24:47;12.90;71.70
6174;DHT22;3120;48.796;9.796;2023-06-14T05:27:13;13.50;69.70
6174;DHT22;3120;48.796;9.796;2023-06-14T05:29:39;13.20;69.00
6174;DHT22;3120;48.796;9.796;2023-06-14T05:32:05;13.50;69.10
6174;DHT22;3120;48.796;9.796;2023-06-14T05:34:42;13.50;68.00
6174;DHT22;3120;48.796;9.796;2023-06-14T05:37:08;13.70;67.30
6174;DHT22;3120;48.796;9.796;2023-06-14T05:39:33;13.90;67.40
6174;DHT22;3120;48.796;9.796;2023-06-14T05:47:04;14.40;65.40
6174;DHT22;3120;48.796;9.796;2023-06-14T05:49:29;14.50;66.10
6174;DHT22;3120;48.796;9.796;2023-06-14T05:51:55;14.60;64.10
6174;DHT22;3120;48.796;9.796;2023-06-14T05:54:20;14.80;64.60
6174;DHT22;3120;48.796;9.796;2023-06-14T05:56:46;15.10;63.50
6174;DHT22;3120;48.796;9.796;2023-06-14T05:59:11;15.60;63.00
6174;DHT22;3120;48.796;9.796;2023-06-14T06:01:37;15.50;61.50
6174;DHT22;3120;48.796;9.796;2023-06-14T06:04:02;15.70;62.10
6174;DHT22;3120;48.796;9.796;2023-06-14T06:06:37;15.80;60.30
6174;DHT22;3120;48.796;9.796;2023-06-14T06:09:12;15.90;60.30
6174;DHT22;3120;48.796;9.796;2023-06-14T06:11:44;16.00;60.40
6174;DHT22;3120;48.796;9.796;2023-06-14T06:14:10;16.20;60.10
6174;DHT22;3120;48.796;9.796;2023-06-14T06:16:35;16.30;59.10
6174;DHT22;3120;48.796;9.796;2023-06-14T06:19:01;16.50;58.50
6174;DHT22;3120;48.796;9.796;2023-06-14T06:21:35;16.70;58.90
6174;DHT22;3120;48.796;9.796;2023-06-14T06:24:01;16.80;58.20
6174;DHT22;3120;48.796;9.796;2023-06-14T06:26:35;17.00;56.80
6174;DHT22;3120;48.796;9.796;2023-06-14T06:29:01;17.00;57.00
6174;DHT22;3120;48.796;9.796;2023-06-14T06:31:27;17.20;56.80
6174;DHT22;3120;48.796;9.796;2023-06-14T06:33:53;17.40;55.80
6174;DHT22;3120;48.796;9.796;2023-06-14T06:36:19;17.60;56.60
6174;DHT22;3120;48.796;9.796;2023-06-14T06:38:45;17.60;55.60
6174;DHT22;3120;48.796;9.796;2023-06-14T06:41:11;18.00;54.80
6174;DHT22;3120;48.796;9.796;2023-06-14T06:43:36;18.50;54.30
6174;DHT22;3120;48.796;9.796;2023-06-14T06:46:02;18.20;54.70
6174;DHT22;3120;48.796;9.796;2023-06-14T06:48:27;18.30;53.70
6174;DHT22;3120;48.796;9.796;2023-06-14T06:50:53;18.40;54.00
6174;DHT22;3120;48.796;9.796;2023-06-14T06:53:19;18.50;52.40
6174;DHT22;3120;48.796;9.796;2023-06-14T06:55:44;18.60;53.60
6174;DHT22;3120;48.796;9.796;2023-06-14T06:58:10;18.70;51.70
6174;DHT22;3120;48.796;9.796;2023-06-14T07:00:35;18.70;51.90
6174;DHT22;3120;48.796;9.796;2023-06-14T07:03:01;18.70;52.50
6174;DHT22;3120;48.796;9.796;2023-06-14T07:05:29;18.70;52.20
6174;DHT22;3120;48.796;9.796;2023-06-14T07:07:54;18.80;52.60
6174;DHT22;3120;48.796;9.796;2023-06-14T07:10:20;18.70;52.20
6174;DHT22;3120;48.796;9.796;2023-06-14T07:12:45;18.90;52.80
6174;DHT22;3120;48.796;9.796;2023-06-14T07:15:12;18.90;52.20
6174;DHT22;3120;48.796;9.796;2023-06-14T07:17:38;18.90;51.60
6174;DHT22;3120;48.796;9.796;2023-06-14T07:22:39;19.00;52.00
6174;DHT22;3120;48.796;9.796;2023-06-14T07:25:19;19.10;50.60
6174;DHT22;3120;48.796;9.796;2023-06-14T07:27:46;19.10;51.50
6174;DHT22;3120;48.796;9.796;2023-06-14T07:30:12;19.00;51.00
6174;DHT22;3120;48.796;9.796;2023-06-14T07:32:38;19.20;51.30
6174;DHT22;3120;48.796;9.796;2023-06-14T07:35:03;19.50;51.50
6174;DHT22;3120;48.796;9.796;2023-06-14T07:37:29;19.60;51.80
6174;DHT22;3120;48.796;9.796;2023-06-14T07:39:54;19.70;49.90
6174;DHT22;3120;48.796;9.796;2023-06-14T07:42:20;19.60;50.80
6174;DHT22;3120;48.796;9.796;2023-06-14T07:47:45;19.70;49.70
6174;DHT22;3120;48.796;9.796;2023-06-14T07:50:11;19.90;48.80
6174;DHT22;3120;48.796;9.796;2023-06-14T07:52:38;19.90;48.90
6174;DHT22;3120;48.796;9.796;2023-06-14T07:55:03;20.00;47.60
6174;DHT22;3120;48.796;9.796;2023-06-14T07:57:29;20.30;48.00
6174;DHT22;3120;48.796;9.796;2023-06-14T07:59:57;20.40;47.10
6174;DHT22;3120;48.796;9.796;2023-06-14T08:02:23;20.50;46.40
6174;DHT22;3120;48.796;9.796;2023-06-14T08:04:49;20.50;47.10
6174;DHT22;3120;48.796;9.796;2023-06-14T08:07:21;20.70;45.90
6174;DHT22;3120;48.796;9.796;2023-06-14T08:09:46;20.70;45.80
6174;DHT22;3120;48.796;9.796;2023-06-14T08:12:12;21.00;45.10
6174;DHT22;3120;48.796;9.796;2023-06-14T08:14:38;21.00;45.40
6174;DHT22;3120;48.796;9.796;2023-06-14T08:17:04;20.80;45.10
6174;DHT22;3120;48.796;9.796;2023-06-14T08:19:30;20.80;44.70
6174;DHT22;3120;48.796;9.796;2023-06-14T08:21:56;21.00;45.20
6174;DHT22;3120;48.796;9.796;2023-06-14T08:24:22;21.10;44.10
6174;DHT22;3120;48.796;9.796;2023-06-14T08:26:52;21.10;44.30
6174;DHT22;3120;48.796;9.796;2023-06-14T08:29:18;21.30;44.40
6174;DHT22;3120;48.796;9.796;2023-06-14T08:31:43;21.10;45.30
6174;DHT22;3120;48.796;9.796;2023-06-14T08:34:09;21.20;45.20
6174;DHT22;3120;48.796;9.796;2023-06-14T08:36:35;21.20;44.60
6174;DHT22;3120;48.796;9.796;2023-06-14T08:39:00;21.40;46.00
6174;DHT22;3120;48.796;9.796;2023-06-14T08:41:26;21.50;44.20
6174;DHT22;3120;48.796;9.796;2023-06-14T08:43:54;21.30;44.00
6174;DHT22;3120;48.796;9.796;2023-06-14T08:46:20;21.10;43.30
6174;DHT22;3120;48.796;9.796;2023-06-14T08:48:49;21.60;43.70
6174;DHT22;3120;48.796;9.796;2023-06-14T08:51:16;21.90;43.10
6174;DHT22;3120;48.796;9.796;2023-06-14T08:53:43;22.00;43.30
6174;DHT22;3120;48.796;9.796;2023-06-14T08:59:13;22.20;43.90
6174;DHT22;3120;48.796;9.796;2023-06-14T09:04:41;22.40;42.00
6174;DHT22;3120;48.796;9.796;2023-06-14T09:10:14;22.00;42.40
6174;DHT22;3120;48.796;9.796;2023-06-14T09:12:40;22.30;42.20
6174;DHT22;3120;48.796;9.796;2023-06-14T09:15:06;22.40;42.20
6174;DHT22;3120;48.796;9.796;2023-06-14T09:17:37;22.50;41.60
6174;DHT22;3120;48.796;9.796;2023-06-14T09:20:03;22.60;41.00
6174;DHT22;3120;48.796;9.796;2023-06-14T09:22:32;22.60;40.70
6174;DHT22;3120;48.796;9.796;2023-06-14T09:24:58;23.10;41.80
6174;DHT22;3120;48.796;9.796;2023-06-14T09:27:28;22.70;40.60
6174;DHT22;3120;48.796;9.796;2023-06-14T09:29:54;22.80;38.90
6174;DHT22;3120;48.796;9.796;2023-06-14T09:32:20;23.00;38.20
6174;DHT22;3120;48.796;9.796;2023-06-14T09:34:46;22.80;40.20
6174;DHT22;3120;48.796;9.796;2023-06-14T09:37:12;23.00;40.60
6174;DHT22;3120;48.796;9.796;2023-06-14T09:39:55;22.80;39.70
6174;DHT22;3120;48.796;9.796;2023-06-14T09:45:10;23.30;37.90
6174;DHT22;3120;48.796;9.796;2023-06-14T09:47:49;23.30;37.00
6174;DHT22;3120;48.796;9.796;2023-06-14T09:50:27;23.30;38.10
6174;DHT22;3120;48.796;9.796;2023-06-14T09:53:10;23.70;36.00
6174;DHT22;3120;48.796;9.796;2023-06-14T09:55:44;23.50;37.60
6174;DHT22;3120;48.796;9.796;2023-06-14T09:58:10;23.70;37.20
6174;DHT22;3120;48.796;9.796;2023-06-14T10:03:38;23.70;37.90
6174;DHT22;3120;48.796;9.796;2023-06-14T10:06:04;23.80;37.40
6174;DHT22;3120;48.796;9.796;2023-06-14T10:08:56;23.90;36.50
6174;DHT22;3120;48.796;9.796;2023-06-14T10:11:33;23.80;35.80
6174;DHT22;3120;48.796;9.796;2023-06-14T10:14:07;23.90;36.60
6174;DHT22;3120;48.796;9.796;2023-06-14T10:17:12;24.10;36.30
6174;DHT22;3120;48.796;9.796;2023-06-14T10:19:47;24.30;35.80
6174;DHT22;3120;48.796;9.796;2023-06-14T10:22:35;24.40;34.70
6174;DHT22;3120;48.796;9.796;2023-06-14T10:25:28;24.30;32.90
6174;DHT22;3120;48.796;9.796;2023-06-14T10:30:54;24.50;33.40
6174;DHT22;3120;48.796;9.796;2023-06-14T10:33:27;25.30;31.50
6174;DHT22;3120;48.796;9.796;2023-06-14T10:38:46;27.10;29.90
6174;DHT22;3120;48.796;9.796;2023-06-14T10:41:11;28.20;29.50
6174;DHT22;3120;48.796;9.796;2023-06-14T10:43:37;28.80;27.90
6174;DHT22;3120;48.796;9.796;2023-06-14T10:46:16;29.00;27.90
6174;DHT22;3120;48.796;9.796;2023-06-14T10:48:42;28.10;27.20
6174;DHT22;3120;48.796;9.796;2023-06-14T10:51:16;28.20;27.10
6174;DHT22;3120;48.796;9.796;2023-06-14T10:53:45;28.80;28.30
6174;DHT22;3120;48.796;9.796;2023-06-14T10:56:32;29.10;27.50
6174;DHT22;3120;48.796;9.796;2023-06-14T10:58:57;30.50;25.90
6174;DHT22;3120;48.796;9.796;2023-06-14T11:01:35;30.50;25.10
6174;DHT22;3120;48.796;9.796;2023-06-14T11:04:11;30.90;23.40
6174;DHT22;3120;48.796;9.796;2023-06-14T11:06:44;30.80;24.60
6174;DHT22;3120;48.796;9.796;2023-06-14T11:11:54;31.60;23.90
6174;DHT22;3120;48.796;9.796;2023-06-14T11:14:21;32.90;23.30
6174;DHT22;3120;48.796;9.796;2023-06-14T11:16:50;33.10;23.50
6174;DHT22;3120;48.796;9.796;2023-06-14T11:19:15;33.10;23.40
6174;DHT22;3120;48.796;9.796;2023-06-14T11:21:42;31.70;26.10
6174;DHT22;3120;48.796;9.796;2023-06-14T11:24:11;30.90;24.50
6174;DHT22;3120;48.796;9.796;2023-06-14T11:26:37;31.10;25.00
6174;DHT22;3120;48.796;9.796;2023-06-14T11:29:03;32.30;22.50
6174;DHT22;3120;48.796;9.796;2023-06-14T11:31:29;34.10;21.10
6174;DHT22;3120;48.796;9.796;2023-06-14T11:33:55;34.00;21.40
6174;DHT22;3120;48.796;9.796;2023-06-14T11:36:22;32.70;23.00
6174;DHT22;3120;48.796;9.796;2023-06-14T11:38:48;33.60;22.10
6174;DHT22;3120;48.796;9.796;2023-06-14T11:41:14;33.80;21.50
6174;DHT22;3120;48.796;9.796;2023-06-14T11:43:39;32.10;23.80
6174;DHT22;3120;48.796;9.796;2023-06-14T11:46:11;30.00;25.60
6174;DHT22;3120;48.796;9.796;2023-06-14T11:48:38;27.40;29.40
6174;DHT22;3120;48.796;9.796;2023-06-14T11:51:04;26.60;29.60
6174;DHT22;3120;48.796;9.796;2023-06-14T11:53:31;26.20;28.90
6174;DHT22;3120;48.796;9.796;2023-06-14T11:55:57;26.10;29.50
6174;DHT22;3120;48.796;9.796;2023-06-14T11:58:23;26.30;29.40
6174;DHT22;3120;48.796;9.796;2023-06-14T12:00:48;26.10;29.70
6174;DHT22;3120;48.796;9.796;2023-06-14T12:03:15;26.60;28.70
6174;DHT22;3120;48.796;9.796;2023-06-14T12:05:41;26.90;29.90
6174;DHT22;3120;48.796;9.796;2023-06-14T12:08:06;26.60;30.50
6174;DHT22;3120;48.796;9.796;2023-06-14T12:10:42;26.50;30.90
6174;DHT22;3120;48.796;9.796;2023-06-14T12:13:10;27.30;29.40
6174;DHT22;3120;48.796;9.796;2023-06-14T12:15:41;28.80;27.70
6174;DHT22;3120;48.796;9.796;2023-06-14T12:18:07;30.20;26.30
6174;DHT22;3120;48.796;9.796;2023-06-14T12:20:33;31.70;24.60
6174;DHT22;3120;48.796;9.796;2023-06-14T12:23:02;32.00;25.10
6174;DHT22;3120;48.796;9.796;2023-06-14T12:28:14;32.10;24.60
6174;DHT22;3120;48.796;9.796;2023-06-14T12:30:39;32.70;23.00
6174;DHT22;3120;48.796;9.796;2023-06-14T12:33:05;32.70;22.40
6174;DHT22;3120;48.796;9.796;2023-06-14T12:35:31;32.70;22.20
6174;DHT22;3120;48.796;9.796;2023-06-14T12:37:56;31.70;22.80
6174;DHT22;3120;48.796;9.796;2023-06-14T12:40:22;31.20;23.40
6174;DHT22;3120;48.796;9.796;2023-06-14T12:42:47;31.60;23.20
6174;DHT22;3120;48.796;9.796;2023-06-14T12:45:13;33.40;21.80
6174;DHT22;3120;48.796;9.796;2023-06-14T12:47:38;34.50;19.90
6174;DHT22;3120;48.796;9.796;2023-06-14T12:50:04;34.80;19.60
6174;DHT22;3120;48.796;9.796;2023-06-14T12:52:30;34.10;20.30
6174;DHT22;3120;48.796;9.796;2023-06-14T12:54:55;33.60;20.70
6174;DHT22;3120;48.796;9.796;2023-06-14T12:57:21;33.70;21.90
6174;DHT22;3120;48.796;9.796;2023-06-14T12:59:46;32.10;23.50
6174;DHT22;3120;48.796;9.796;2023-06-14T13:02:16;32.70;23.20
6174;DHT22;3120;48.796;9.796;2023-06-14T13:04:42;32.50;23.10
6174;DHT22;3120;48.796;9.796;2023-06-14T13:07:07;33.30;22.50
6174;DHT22;3120;48.796;9.796;2023-06-14T13:09:33;31.50;23.50
6174;DHT22;3120;48.796;9.796;2023-06-14T13:11:58;30.30;25.20
6174;DHT22;3120;48.796;9.796;2023-06-14T13:14:24;29.10;26.40
6174;DHT22;3120;48.796;9.796;2023-06-14T13:16:50;28.40;26.80
6174;DHT22;3120;48.796;9.796;2023-06-14T13:19:15;27.60;27.70
6174;DHT22;3120;48.796;9.796;2023-06-14T13:21:41;27.70;29.00
6174;DHT22;3120;48.796;9.796;2023-06-14T13:24:07;27.50;28.60
6174;DHT22;3120;48.796;9.796;2023-06-14T13:26:32;27.30;28.90
6174;DHT22;3120;48.796;9.796;2023-06-14T13:28:58;27.00;28.80
6174;DHT22;3120;48.796;9.796;2023-06-14T13:31:24;27.20;28.90
6174;DHT22;3120;48.796;9.796;2023-06-14T13:33:49;27.30;28.40
6174;DHT22;3120;48.796;9.796;2023-06-14T13:36:16;27.80;29.10
6174;DHT22;3120;48.796;9.796;2023-06-14T13:38:41;28.10;28.20
6174;DHT22;3120;48.796;9.796;2023-06-14T13:41:07;30.00;27.40
6174;DHT22;3120;48.796;9.796;2023-06-14T13:43:32;31.50;25.70
6174;DHT22;3120;48.796;9.796;2023-06-14T13:45:58;31.20;24.90
6174;DHT22;3120;48.796;9.796;2023-06-14T13:48:23;31.30;23.70
6174;DHT22;3120;48.796;9.796;2023-06-14T13:50:49;32.20;22.60
6174;DHT22;3120;48.796;9.796;2023-06-14T13:53:15;32.80;24.30
6174;DHT22;3120;48.796;9.796;2023-06-14T13:55:40;33.10;22.10
6174;DHT22;3120;48.796;9.796;2023-06-14T13:58:06;32.70;22.90
6174;DHT22;3120;48.796;9.796;2023-06-14T14:00:31;32.30;24.10
6174;DHT22;3120;48.796;9.796;2023-06-14T14:02:57;32.30;23.30
6174;DHT22;3120;48.796;9.796;2023-06-14T14:05:25;31.00;24.20
6174;DHT22;3120;48.796;9.796;2023-06-14T14:07:55;29.80;26.20
6174;DHT22;3120;48.796;9.796;2023-06-14T14:10:20;29.40;26.50
6174;DHT22;3120;48.796;9.796;2023-06-14T14:12:46;28.90;26.40
6174;DHT22;3120;48.796;9.796;2023-06-14T14:15:11;28.50;27.80
6174;DHT22;3120;48.796;9.796;2023-06-14T14:17:40;28.40;27.20
6174;DHT22;3120;48.796;9.796;2023-06-14T14:20:06;28.30;26.90
6174;DHT22;3120;48.796;9.796;2023-06-14T14:22:32;27.80;28.50
6174;DHT22;3120;48.796;9.796;2023-06-14T14:24:57;28.20;28.50
6174;DHT22;3120;48.796;9.796;2023-06-14T14:27:23;28.50;27.40
6174;DHT22;3120;48.796;9.796;2023-06-14T14:29:48;27.70;28.40
6174;DHT22;3120;48.796;9.796;2023-06-14T14:32:14;27.80;28.70
6174;DHT22;3120;48.796;9.796;2023-06-14T14:34:40;28.00;28.10
6174;DHT22;3120;48.796;9.796;2023-06-14T14:37:06;29.10;27.30
6174;DHT22;3120;48.796;9.796;2023-06-14T14:39:31;30.70;26.40
6174;DHT22;3120;48.796;9.796;2023-06-14T14:41:57;31.00;25.20
6174;DHT22;3120;48.796;9.796;2023-06-14T14:44:22;30.30;26.30
6174;DHT22;3120;48.796;9.796;2023-06-14T14:46:48;29.60;26.90
6174;DHT22;3120;48.796;9.796;2023-06-14T14:49:13;28.90;26.70
6174;DHT22;3120;48.796;9.796;2023-06-14T14:51:39;28.00;27.70
6174;DHT22;3120;48.796;9.796;2023-06-14T14:54:05;27.50;28.80
6174;DHT22;3120;48.796;9.796;2023-06-14T14:56:31;27.10;29.50
6174;DHT22;3120;48.796;9.796;2023-06-14T14:58:56;27.20;29.20
6174;DHT22;3120;48.796;9.796;2023-06-14T15:01:22;27.00;30.00
6174;DHT22;3120;48.796;9.796;2023-06-14T15:03:48;26.90;30.00
6174;DHT22;3120;48.796;9.796;2023-06-14T15:06:14;26.60;30.00
6174;DHT22;3120;48.796;9.796;2023-06-14T15:08:39;26.70;30.00
6174;DHT22;3120;48.796;9.796;2023-06-14T15:11:05;26.90;29.90
6174;DHT22;3120;48.796;9.796;2023-06-14T15:13:31;27.50;29.60
6174;DHT22;3120;48.796;9.796;2023-06-14T15:15:57;27.50;29.30
6174;DHT22;3120;48.796;9.796;2023-06-14T15:18:23;27.30;30.00
6174;DHT22;3120;48.796;9.796;2023-06-14T15:20:48;27.10;30.20
6174;DHT22;3120;48.796;9.796;2023-06-14T15:23:15;26.90;30.40
6174;DHT22;3120;48.796;9.796;2023-06-14T15:25:45;27.00;30.50
6174;DHT22;3120;48.796;9.796;2023-06-14T15:28:11;26.60;30.90
6174;DHT22;3120;48.796;9.796;2023-06-14T15:30:36;26.60;31.70
6174;DHT22;3120;48.796;9.796;2023-06-14T15:33:02;26.70;30.90
6174;DHT22;3120;48.796;9.796;2023-06-14T15:35:27;26.30;31.50
6174;DHT22;3120;48.796;9.796;2023-06-14T15:37:53;26.60;32.90
6174;DHT22;3120;48.796;9.796;2023-06-14T15:40:24;26.40;33.10
6174;DHT22;3120;48.796;9.796;2023-06-14T15:42:59;26.10;31.60
6174;DHT22;3120;48.796;9.796;2023-06-14T15:45:28;26.30;31.90
6174;DHT22;3120;48.796;9.796;2023-06-14T15:48:02;27.80;32.80
6174;DHT22;3120;48.796;9.796;2023-06-14T15:50:31;29.50;27.50
6174;DHT22;3120;48.796;9.796;2023-06-14T15:53:09;30.40;28.30
6174;DHT22;3120;48.796;9.796;2023-06-14T15:55:41;30.70;25.60
6174;DHT22;3120;48.796;9.796;2023-06-14T15:58:10;30.20;26.40
6174;DHT22;3120;48.796;9.796;2023-06-14T16:00:49;30.40;26.00
6174;DHT22;3120;48.796;9.796;2023-06-14T16:03:30;30.50;27.20
6174;DHT22;3120;48.796;9.796;2023-06-14T16:06:06;31.20;25.50
6174;DHT22;3120;48.796;9.796;2023-06-14T16:08:34;30.80;25.30
6174;DHT22;3120;48.796;9.796;2023-06-14T16:11:01;31.10;25.40
6174;DHT22;3120;48.796;9.796;2023-06-14T16:13:38;31.30;26.40
6174;DHT22;3120;48.796;9.796;2023-06-14T16:16:16;31.40;24.60
6174;DHT22;3120;48.796;9.796;2023-06-14T16:18:58;31.80;24.40
6174;DHT22;3120;48.796;9.796;2023-06-14T16:21:27;31.00;25.00
6174;DHT22;3120;48.796;9.796;2023-06-14T16:24:00;31.30;24.90
6174;DHT22;3120;48.796;9.796;2023-06-14T16:26:29;31.20;25.00
6174;DHT22;3120;48.796;9.796;2023-06-14T16:28:55;31.10;24.80
6174;DHT22;3120;48.796;9.796;2023-06-14T16:31:21;30.40;25.90
6174;DHT22;3120;48.796;9.796;2023-06-14T16:33:47;29.60;26.40
6174;DHT22;3120;48.796;9.796;2023-06-14T16:36:15;29.30;26.70
6174;DHT22;3120;48.796;9.796;2023-06-14T16:38:41;29.30;27.40
6174;DHT22;3120;48.796;9.796;2023-06-14T16:41:06;29.10;26.70
6174;DHT22;3120;48.796;9.796;2023-06-14T16:43:32;28.10;28.20
6174;DHT22;3120;48.796;9.796;2023-06-14T16:46:01;27.30;29.10
6174;DHT22;3120;48.796;9.796;2023-06-14T16:48:30;27.40;29.40
6174;DHT22;3120;48.796;9.796;2023-06-14T16:50:55;27.90;29.10